Portland, Oregon
Traffic Map
Current Weather Conditions
Portland, Oregon
Broken Clouds
Broken Clouds
59°
Feels Like: 59°
Wind Chill: 59° Ceiling: 9500
Heat Index: 59° Visibility: 10mi
Dew Point: 57° Wind: 6mph
Humidity: 93% Direction: 100° (E)
Pressure: 29.88in Gusts: 0mph
Raw Report DataKPDX 020953Z 10005KT 10SM SCT075 BKN095 15/14 A2988 RMK AO2 SLP116 T01500139
Traffic Incident Summary
Active as of:
Severity:
Category:
InformationThere was an issue retrieving the traffic information for this location. Please try a different location or try again shortly.
Advertisements
Track Severe Weather on mobile